Time;durP1;ratioP1;P1;durP2;ratioP2;P2;SDS_P1;SDS_P2;PMS_P1;PMS_P2;Temp;Humidity;BMP_temperature;BMP_pressure;BME280_temperature;BME280_humidity;BME280_pressure;Samples;Min_cycle;Max_cycle;Signal;HPM_P1;HPM_P2
2021/03/05 00:01:35;;;;;;;30.48;16.07;;;;;;;2.84;66.63;98935.56;1704140;83;21189;-63
2021/03/05 00:04:03;;;;;;;29.32;15.48;;;;;;;2.86;66.52;98930.78;1714757;83;21768;-63
2021/03/05 00:06:30;;;;;;;31.87;16.75;;;;;;;2.81;66.85;98930.67;1679737;83;21153;-63
2021/03/05 00:08:58;;;;;;;30.68;17.05;;;;;;;2.75;67.05;98928.97;1716961;83;21192;-64
2021/03/05 00:11:26;;;;;;;29.72;16.32;;;;;;;2.68;67.26;98926.95;1680463;83;21185;-63
2021/03/05 00:13:54;;;;;;;26.65;15.70;;;;;;;2.80;67.14;98939.82;1698888;83;21186;-63
2021/03/05 00:16:22;;;;;;;29.42;15.18;;;;;;;2.84;67.06;98939.59;1707525;83;21174;-63
2021/03/05 00:18:51;;;;;;;32.45;17.10;;;;;;;2.79;67.24;98939.53;1687223;83;21167;-64
2021/03/05 00:21:18;;;;;;;27.93;16.23;;;;;;;2.59;67.43;98912.28;1711857;83;21536;-64
2021/03/05 00:23:46;;;;;;;28.77;15.03;;;;;;;2.73;67.43;98936.47;1700093;83;21198;-63
2021/03/05 00:26:14;;;;;;;30.27;16.35;;;;;;;2.70;67.23;98945.80;1690489;83;21145;-64
2021/03/05 00:28:41;;;;;;;32.00;16.52;;;;;;;2.73;67.18;98943.19;1698517;83;21159;-64
2021/03/05 00:31:09;;;;;;;28.55;15.70;;;;;;;2.70;67.45;98944.98;1716379;83;21209;-64
2021/03/05 00:33:36;;;;;;;32.93;17.20;;;;;;;2.76;67.41;98946.20;1713227;83;21122;-64
2021/03/05 00:36:06;;;;;;;33.53;17.02;;;;;;;2.89;67.10;98938.36;1698371;83;21153;-65
2021/03/05 00:38:34;;;;;;;31.50;17.23;;;;;;;2.87;67.12;98943.18;1701883;83;21737;-64
2021/03/05 00:41:01;;;;;;;31.85;17.07;;;;;;;2.85;67.29;98942.59;1707113;83;21165;-64
2021/03/05 00:43:28;;;;;;;32.25;16.70;;;;;;;2.81;67.40;98936.88;1703717;83;21202;-64
2021/03/05 00:45:56;;;;;;;28.57;15.28;;;;;;;2.78;67.56;98932.51;1701366;83;21696;-64
2021/03/05 00:48:24;;;;;;;26.48;14.18;;;;;;;2.73;67.64;98933.78;1660662;85;21635;-64
2021/03/05 00:50:52;;;;;;;28.98;15.85;;;;;;;2.82;67.34;98922.91;1700881;83;21906;-64
2021/03/05 00:53:19;;;;;;;28.20;14.83;;;;;;;2.85;67.23;98928.63;1689767;83;21615;-64
2021/03/05 00:55:47;;;;;;;27.10;14.43;;;;;;;2.81;67.27;98925.30;1711508;83;21125;-64
2021/03/05 00:58:17;;;;;;;26.55;15.25;;;;;;;2.76;67.47;98931.95;1706470;83;21361;-64
2021/03/05 01:00:44;;;;;;;29.12;15.65;;;;;;;2.72;67.58;98929.45;1713068;83;21153;-64
2021/03/05 01:03:13;;;;;;;28.47;14.87;;;;;;;2.71;67.64;98923.78;1711313;83;21142;-64
2021/03/05 01:05:40;;;;;;;25.10;13.72;;;;;;;2.72;67.55;98917.36;1705077;83;21591;-63
2021/03/05 01:08:08;;;;;;;26.17;14.25;;;;;;;2.70;67.55;98923.48;1717826;83;21181;-63
2021/03/05 01:10:40;;;;;;;27.70;13.55;;;;;;;2.69;67.55;98924.56;1715460;83;21197;-64
2021/03/05 01:13:08;;;;;;;27.87;14.45;;;;;;;2.73;67.37;98921.13;1705768;83;21301;-63
2021/03/05 01:15:35;;;;;;;26.93;14.03;;;;;;;2.66;67.50;98933.11;1704772;83;21587;-65
2021/03/05 01:18:03;;;;;;;26.05;13.28;;;;;;;2.59;67.78;98929.75;1707584;83;21145;-64
2021/03/05 01:20:31;;;;;;;27.48;14.23;;;;;;;2.54;67.90;98941.72;1718399;83;21185;-63
2021/03/05 01:22:59;;;;;;;25.62;13.30;;;;;;;2.48;67.98;98938.92;1716428;83;21564;-65
2021/03/05 01:25:29;;;;;;;23.25;12.15;;;;;;;2.51;67.97;98944.38;1709798;83;21283;-65
2021/03/05 01:27:56;;;;;;;24.05;14.45;;;;;;;2.45;68.11;98945.30;1699362;83;21161;-64
2021/03/05 01:30:25;;;;;;;25.88;12.88;;;;;;;2.39;68.17;98939.55;1703498;83;21294;-64
2021/03/05 01:32:52;;;;;;;28.67;15.28;;;;;;;2.34;68.25;98943.46;1700595;83;21593;-63
2021/03/05 01:35:25;;;;;;;23.87;12.82;;;;;;;2.39;68.22;98938.20;1692332;83;21172;-63
2021/03/05 01:37:53;;;;;;;27.05;14.28;;;;;;;2.45;68.11;98946.12;1669189;85;21153;-63
2021/03/05 01:40:32;;;;;;;24.57;12.95;;;;;;;2.38;68.20;98940.59;1704706;83;21161;-63
2021/03/05 01:43:01;;;;;;;26.35;13.75;;;;;;;2.34;68.35;98952.34;1716816;83;21320;-63
2021/03/05 01:45:30;;;;;;;24.72;13.65;;;;;;;2.29;68.53;98952.77;1714509;83;21295;-64
2021/03/05 01:48:02;;;;;;;25.62;14.38;;;;;;;2.33;68.53;98955.28;1680032;85;21373;-63
2021/03/05 01:50:33;;;;;;;22.40;11.83;;;;;;;2.42;68.19;98953.32;1656350;86;21180;-64
2021/03/05 01:53:05;;;;;;;26.93;13.58;;;;;;;2.35;68.26;98948.61;1682945;85;21615;-64
2021/03/05 01:55:35;;;;;;;25.62;12.85;;;;;;;2.27;68.54;98955.69;1643444;86;21148;-64
2021/03/05 01:58:02;;;;;;;26.30;12.82;;;;;;;2.22;68.72;98966.86;1678815;85;21586;-64
2021/03/05 02:00:41;;;;;;;24.63;12.73;;;;;;;2.23;68.84;98964.47;1709801;84;21327;-64
2021/03/05 02:03:09;;;;;;;28.27;14.50;;;;;;;2.34;68.76;98964.42;1712257;84;21315;-63
2021/03/05 02:05:38;;;;;;;24.85;13.35;;;;;;;2.30;68.59;98971.87;1701663;84;21288;-63
2021/03/05 02:08:12;;;;;;;27.07;13.18;;;;;;;2.21;68.94;98958.50;1711319;84;21726;-64
2021/03/05 02:10:40;;;;;;;25.62;14.03;;;;;;;2.14;69.12;98961.33;1690413;84;21189;-64
2021/03/05 02:13:08;;;;;;;25.95;13.08;;;;;;;2.16;69.18;98965.92;1709554;84;21170;-64
2021/03/05 02:15:37;;;;;;;26.73;13.83;;;;;;;2.16;69.29;98969.16;1698168;84;21692;-64
2021/03/05 02:18:28;;;;;;;24.10;12.65;;;;;;;2.16;69.35;98967.27;1658232;84;21174;-64
2021/03/05 02:21:23;;;;;;;21.70;10.95;;;;;;;2.28;69.04;98960.02;1702645;84;21200;-62
2021/03/05 02:24:41;;;;;;;26.20;14.03;;;;;;;2.27;68.93;98964.27;1710074;84;21363;-63
2021/03/05 02:27:53;;;;;;;21.60;12.47;;;;;;;2.18;69.25;98973.75;1699567;84;21161;-63
2021/03/05 02:30:55;;;;;;;24.55;13.35;;;;;;;2.15;69.53;98976.91;1684355;84;21193;-61
2021/03/05 02:33:35;;;;;;;25.25;12.60;;;;;;;2.14;69.41;98976.09;1710763;84;21141;-63
2021/03/05 02:36:05;;;;;;;24.80;13.83;;;;;;;2.06;69.62;98981.81;1674544;85;21171;-63
2021/03/05 02:38:32;;;;;;;25.43;13.65;;;;;;;2.10;69.61;98984.84;1691082;84;21133;-63
2021/03/05 02:40:59;;;;;;;27.55;14.03;;;;;;;2.18;69.49;98991.20;1707030;84;21180;-63
2021/03/05 02:43:28;;;;;;;24.37;13.13;;;;;;;2.15;69.60;99000.56;1684653;84;21327;-63
2021/03/05 02:46:16;;;;;;;26.07;14.15;;;;;;;2.11;69.69;98993.20;1698513;84;21986;-63
2021/03/05 02:48:45;;;;;;;26.70;13.78;;;;;;;2.05;69.83;98994.97;1633807;86;21231;-63
2021/03/05 02:51:13;;;;;;;25.90;13.95;;;;;;;2.10;69.81;98994.23;1658157;86;21308;-63
2021/03/05 02:53:41;;;;;;;28.75;15.20;;;;;;;2.22;69.55;98995.87;1663982;86;21194;-63
2021/03/05 02:56:17;;;;;;;28.35;14.35;;;;;;;2.21;69.68;98998.78;1672864;84;21188;-62
2021/03/05 02:58:48;;;;;;;22.62;11.83;;;;;;;2.16;69.79;98991.42;1685141;84;21310;-63
2021/03/05 03:01:16;;;;;;;25.32;13.50;;;;;;;2.14;69.86;99002.13;1691346;84;21161;-63
2021/03/05 03:03:44;;;;;;;29.92;14.63;;;;;;;2.06;70.01;98999.78;1695550;84;21314;-63
2021/03/05 03:06:12;;;;;;;27.35;13.28;;;;;;;2.04;70.08;98995.19;1670706;84;21168;-63
2021/03/05 03:08:39;;;;;;;29.77;14.98;;;;;;;2.04;70.17;99002.72;1695976;84;21234;-63
2021/03/05 03:11:07;;;;;;;28.50;15.03;;;;;;;2.09;70.15;99004.16;1680809;84;21203;-62
2021/03/05 03:13:37;;;;;;;27.67;13.93;;;;;;;2.17;70.05;99010.52;1695028;84;21611;-63
2021/03/05 03:16:05;;;;;;;28.38;16.07;;;;;;;2.12;70.21;99016.32;1683102;84;21164;-63
2021/03/05 03:18:34;;;;;;;26.60;13.55;;;;;;;2.03;70.51;99015.84;1696453;84;21241;-63
2021/03/05 03:21:03;;;;;;;31.70;16.05;;;;;;;1.99;70.71;99018.70;1679682;84;21198;-63
2021/03/05 03:23:30;;;;;;;32.28;16.37;;;;;;;1.98;70.84;99023.80;1685113;84;21195;-63
2021/03/05 03:25:59;;;;;;;28.92;15.85;;;;;;;1.94;70.90;99020.77;1677669;83;21624;-63
2021/03/05 03:28:28;;;;;;;30.12;16.15;;;;;;;1.94;71.05;99023.97;1672105;84;21258;-63
2021/03/05 03:30:56;;;;;;;30.68;14.93;;;;;;;1.96;71.08;99025.36;1683738;84;21200;-63
2021/03/05 03:33:23;;;;;;;35.30;18.30;;;;;;;1.95;71.16;99025.58;1689068;84;21571;-63
2021/03/05 03:35:51;;;;;;;32.55;18.25;;;;;;;2.08;71.00;99022.69;1694792;84;21139;-64
2021/03/05 03:38:19;;;;;;;31.50;16.87;;;;;;;2.07;70.97;99025.59;1687263;84;21232;-64
2021/03/05 03:40:47;;;;;;;31.15;16.00;;;;;;;2.03;71.14;99029.27;1657492;86;21631;-64
2021/03/05 03:43:14;;;;;;;34.35;17.73;;;;;;;2.03;71.23;99034.64;1692066;84;21192;-63
2021/03/05 03:45:42;;;;;;;33.95;16.97;;;;;;;2.02;71.32;99036.23;1685166;83;21176;-64
2021/03/05 03:48:11;;;;;;;36.13;17.52;;;;;;;2.07;71.18;99034.46;1683672;83;21157;-63
2021/03/05 03:50:55;;;;;;;34.35;17.07;;;;;;;2.12;71.07;99031.91;1658000;85;21557;-64
2021/03/05 03:53:26;;;;;;;31.02;14.30;;;;;;;2.06;71.32;99033.34;1676041;85;21908;-64
2021/03/05 03:55:54;;;;;;;33.92;17.30;;;;;;;1.95;71.93;99037.14;1675496;85;21177;-64
2021/03/05 03:58:43;;;;;;;31.27;15.63;;;;;;;1.86;72.18;99039.06;1671049;85;21199;-63
2021/03/05 04:01:11;;;;;;;39.23;19.50;;;;;;;1.91;72.29;99045.91;1666134;86;21160;-64
2021/03/05 04:03:42;;;;;;;33.20;18.27;;;;;;;1.99;72.13;99044.20;1678592;85;21242;-64
2021/03/05 04:06:09;;;;;;;32.05;16.37;;;;;;;1.93;72.43;99043.28;1680180;83;21228;-62
2021/03/05 04:08:40;;;;;;;33.83;17.50;;;;;;;1.85;73.00;99040.11;1693074;84;21444;-63
2021/03/05 04:11:08;;;;;;;32.73;16.17;;;;;;;1.77;73.20;99048.52;1693594;85;21716;-63
2021/03/05 04:13:41;;;;;;;27.20;14.07;;;;;;;1.74;73.46;99047.09;1680316;84;21214;-63
2021/03/05 04:16:08;;;;;;;32.67;16.05;;;;;;;1.88;73.26;99050.38;1688967;85;21531;-63
2021/03/05 04:18:37;;;;;;;30.80;16.55;;;;;;;1.86;73.31;99047.13;1694093;85;21180;-63
2021/03/05 04:21:08;;;;;;;32.63;15.90;;;;;;;1.82;73.46;99041.92;1693506;84;21136;-62
2021/03/05 04:23:35;;;;;;;28.38;14.35;;;;;;;1.80;73.61;99050.22;1676477;85;21630;-63
2021/03/05 04:26:03;;;;;;;36.73;16.35;;;;;;;1.79;73.69;99053.12;1693557;83;21182;-63
2021/03/05 04:28:30;;;;;;;33.83;17.60;;;;;;;1.85;73.55;99048.98;1692904;85;21255;-63
2021/03/05 04:30:58;;;;;;;33.55;17.20;;;;;;;1.91;73.36;99044.02;1691894;85;21632;-63
2021/03/05 04:33:26;;;;;;;29.77;15.28;;;;;;;1.85;73.55;99048.98;1688962;84;21325;-63
2021/03/05 04:35:53;;;;;;;34.78;17.10;;;;;;;1.79;74.06;99049.92;1694098;85;21306;-63
2021/03/05 04:38:21;;;;;;;34.88;16.15;;;;;;;1.72;74.10;99045.70;1687296;84;21173;-63
2021/03/05 04:40:48;;;;;;;30.60;16.10;;;;;;;1.75;74.20;99052.77;1693079;85;21200;-63
2021/03/05 04:43:16;;;;;;;31.40;15.25;;;;;;;1.87;74.42;99044.73;1694031;84;21875;-63
2021/03/05 04:45:43;;;;;;;34.98;16.50;;;;;;;1.80;75.13;99051.56;1689792;85;21187;-64
2021/03/05 04:48:12;;;;;;;29.95;14.13;;;;;;;1.70;75.25;99057.20;1693511;84;21295;-64
2021/03/05 04:50:40;;;;;;;32.00;16.02;;;;;;;1.62;75.72;99053.51;1693801;84;21135;-64
2021/03/05 04:53:08;;;;;;;33.42;16.55;;;;;;;1.57;76.05;99062.23;1694011;85;21164;-63
2021/03/05 04:55:36;;;;;;;32.25;16.55;;;;;;;1.65;76.04;99055.73;1704524;84;21285;-64
2021/03/05 04:58:04;;;;;;;39.90;19.05;;;;;;;1.68;75.99;99061.97;1692983;84;21235;-64
2021/03/05 05:00:32;;;;;;;36.75;17.25;;;;;;;1.66;76.20;99068.10;1695969;84;21149;-63
2021/03/05 05:03:00;;;;;;;36.05;18.62;;;;;;;1.63;76.38;99068.56;1699531;84;21222;-64
2021/03/05 05:05:28;;;;;;;36.28;16.45;;;;;;;1.62;76.47;99067.74;1699367;84;21175;-64
2021/03/05 05:07:56;;;;;;;40.12;19.35;;;;;;;1.71;76.29;99069.55;1694464;84;21587;-63
2021/03/05 05:10:25;;;;;;;39.85;19.35;;;;;;;1.82;76.01;99068.75;1698680;83;21937;-64
2021/03/05 05:12:55;;;;;;;37.42;19.55;;;;;;;1.82;76.07;99070.09;1697665;83;21205;-64
2021/03/05 05:15:22;;;;;;;39.27;18.50;;;;;;;1.80;76.16;99076.23;1691344;84;21198;-64
2021/03/05 05:17:50;;;;;;;45.33;20.62;;;;;;;1.71;76.32;99075.73;1681555;84;21127;-64
2021/03/05 05:20:19;;;;;;;43.95;22.00;;;;;;;1.76;76.24;99085.79;1698974;84;21173;-63
2021/03/05 05:22:46;;;;;;;42.53;20.85;;;;;;;1.88;76.00;99086.09;1699472;84;21147;-64
2021/03/05 05:25:14;;;;;;;44.85;22.77;;;;;;;1.84;76.08;99090.83;1699559;84;21350;-64
2021/03/05 05:27:41;;;;;;;45.90;21.65;;;;;;;1.77;76.22;99084.20;1675490;83;21605;-64
2021/03/05 05:30:11;;;;;;;46.92;23.62;;;;;;;1.74;76.41;99087.34;1697196;84;21192;-64
2021/03/05 05:32:39;;;;;;;54.30;24.18;;;;;;;1.72;76.47;99084.09;1673092;83;21221;-63
2021/03/05 05:35:09;;;;;;;42.30;20.10;;;;;;;1.67;76.28;99060.32;1695989;84;21617;-64
2021/03/05 05:37:36;;;;;;;43.13;21.17;;;;;;;1.98;75.96;99094.94;1690856;84;21286;-64
2021/03/05 05:40:05;;;;;;;41.95;21.60;;;;;;;1.96;76.00;99090.30;1686527;84;21330;-63
2021/03/05 05:42:33;;;;;;;40.55;19.50;;;;;;;1.95;76.17;99095.38;1697407;84;21693;-63
2021/03/05 05:45:00;;;;;;;38.40;19.92;;;;;;;1.95;76.23;99093.51;1699116;83;21190;-63
2021/03/05 05:47:29;;;;;;;39.95;20.48;;;;;;;1.74;76.31;99070.42;1696553;83;21150;-64
2021/03/05 05:50:01;;;;;;;36.48;19.12;;;;;;;2.02;76.13;99100.66;1699460;83;21188;-62
2021/03/05 05:52:30;;;;;;;37.83;19.45;;;;;;;2.18;75.76;99103.47;1687491;84;22023;-63
2021/03/05 05:54:58;;;;;;;38.28;19.80;;;;;;;2.16;75.57;99099.39;1671093;86;21242;-62
2021/03/05 05:57:25;;;;;;;37.10;18.75;;;;;;;2.03;75.74;99100.41;1692662;84;21157;-62
2021/03/05 05:59:53;;;;;;;38.13;19.05;;;;;;;1.97;75.88;99113.42;1690809;84;21545;-62
2021/03/05 06:02:21;;;;;;;36.77;18.40;;;;;;;1.94;76.05;99108.52;1677275;84;21176;-62
2021/03/05 06:04:54;;;;;;;32.35;16.55;;;;;;;2.09;75.84;99110.21;1677953;84;21227;-62
2021/03/05 06:07:23;;;;;;;32.03;15.88;;;;;;;2.26;75.25;99111.19;1659783;86;21952;-62
2021/03/05 06:09:53;;;;;;;38.10;18.07;;;;;;;2.18;74.92;99118.75;1673515;84;21337;-62
2021/03/05 06:12:20;;;;;;;33.13;16.17;;;;;;;2.09;75.26;99116.13;1639641;86;21346;-61
2021/03/05 06:14:48;;;;;;;33.45;16.85;;;;;;;2.05;75.21;99118.46;1642198;87;21198;-61
2021/03/05 06:17:15;;;;;;;31.10;16.52;;;;;;;2.12;74.96;99120.52;1672972;84;21652;-60
2021/03/05 06:19:43;;;;;;;33.28;16.25;;;;;;;2.21;74.56;99123.13;1683511;83;21353;-59
2021/03/05 06:22:22;;;;;;;32.75;16.70;;;;;;;2.21;74.52;99125.82;1669034;85;21738;-59
2021/03/05 06:24:49;;;;;;;32.33;16.48;;;;;;;2.16;74.65;99133.74;1635575;87;21738;-60
2021/03/05 06:27:18;;;;;;;33.38;16.82;;;;;;;2.12;74.73;99131.25;1664985;84;21678;-59
2021/03/05 06:29:48;;;;;;;35.13;18.20;;;;;;;2.20;74.42;99132.75;1651100;85;21265;-60
2021/03/05 06:32:17;;;;;;;36.77;18.12;;;;;;;2.25;73.93;99131.55;1665462;84;21180;-60
2021/03/05 06:34:52;;;;;;;34.92;17.50;;;;;;;2.18;73.85;99135.69;1668006;84;21659;-60
2021/03/05 06:37:25;;;;;;;37.57;19.63;;;;;;;2.15;73.99;99132.13;1694034;84;21950;-60
2021/03/05 06:40:05;;;;;;;33.42;17.27;;;;;;;2.12;74.03;99131.77;1671654;84;21666;-60
2021/03/05 06:42:53;;;;;;;32.05;16.57;;;;;;;2.24;73.71;99127.22;1649086;86;21742;-60
2021/03/05 06:45:23;;;;;;;28.38;14.73;;;;;;;2.41;73.20;99120.91;1630583;87;21365;-61
2021/03/05 06:48:08;;;;;;;29.95;15.25;;;;;;;2.44;72.76;99125.02;1616790;86;21307;-60
2021/03/05 06:50:39;;;;;;;30.48;14.95;;;;;;;2.43;72.19;99133.60;1680370;84;21552;-60
2021/03/05 06:53:25;;;;;;;30.52;15.25;;;;;;;2.44;72.29;99130.39;1674741;84;21321;-60
2021/03/05 06:55:52;;;;;;;23.25;12.68;;;;;;;2.48;71.76;99126.98;1659523;85;21212;-59
2021/03/05 06:58:21;;;;;;;26.52;12.98;;;;;;;2.56;70.28;99135.74;1639979;86;21204;-59
2021/03/05 07:00:48;;;;;;;24.70;12.53;;;;;;;2.53;70.40;99141.59;1629988;86;21346;-59
2021/03/05 07:03:22;;;;;;;27.27;13.53;;;;;;;2.49;70.29;99145.27;1694174;84;21223;-59
2021/03/05 07:05:55;;;;;;;22.55;11.68;;;;;;;2.37;70.04;99131.83;1696690;84;21182;-60
2021/03/05 07:08:44;;;;;;;21.10;11.12;;;;;;;2.35;70.09;99140.66;1675243;84;21212;-60
2021/03/05 07:11:32;;;;;;;23.25;12.18;;;;;;;2.53;69.26;99145.62;1692231;84;21234;-60
2021/03/05 07:13:59;;;;;;;21.47;11.07;;;;;;;2.51;68.27;99146.66;1679634;84;21171;-61
2021/03/05 07:16:49;;;;;;;26.12;13.05;;;;;;;2.48;68.47;99146.31;1700941;84;21367;-60
2021/03/05 07:19:20;;;;;;;25.68;12.15;;;;;;;2.39;68.22;99147.73;1700293;83;21247;-60
2021/03/05 07:21:48;;;;;;;22.80;12.28;;;;;;;2.42;68.16;99137.33;1689053;84;21189;-60
2021/03/05 07:24:18;;;;;;;20.80;11.15;;;;;;;2.44;68.49;99148.65;1688521;83;21186;-60
2021/03/05 07:29:46;;;;;;;22.87;12.03;;;;;;;2.60;68.18;99143.62;1757169;79;22967;-60
2021/03/05 07:32:48;;;;;;;23.67;11.12;;;;;;;2.58;68.51;99142.55;1722407;83;21208;-61
2021/03/05 07:35:33;;;;;;;24.98;12.90;;;;;;;2.65;68.37;99141.07;1720773;83;21133;-60
2021/03/05 07:38:03;;;;;;;23.20;12.80;;;;;;;2.72;67.94;99144.45;1719445;83;21300;-60
2021/03/05 07:40:31;;;;;;;23.02;12.55;;;;;;;2.81;67.42;99141.16;1722518;83;21149;-60
2021/03/05 07:42:59;;;;;;;26.27;13.65;;;;;;;2.77;67.56;99157.98;1722547;83;21177;-61
2021/03/05 07:45:27;;;;;;;25.17;12.40;;;;;;;2.70;67.33;99164.83;1722607;83;21189;-62
2021/03/05 07:47:54;;;;;;;23.67;12.65;;;;;;;2.64;67.63;99159.06;1695930;83;21694;-61
2021/03/05 07:50:24;;;;;;;23.92;12.40;;;;;;;2.66;67.25;99152.12;1702462;83;21162;-61
2021/03/05 07:52:51;;;;;;;25.30;12.00;;;;;;;2.68;67.03;99154.03;1692234;85;21385;-61
2021/03/05 07:55:27;;;;;;;22.15;11.10;;;;;;;2.67;66.76;99150.52;1691980;85;21680;-61
2021/03/05 07:58:01;;;;;;;25.80;13.15;;;;;;;2.74;66.61;99141.81;1807064;79;23402;-61
2021/03/05 08:00:51;;;;;;;26.20;13.48;;;;;;;2.72;66.59;99144.45;1759452;81;21290;-60
2021/03/05 08:03:52;;;;;;;25.17;12.63;;;;;;;2.75;66.89;99152.86;1749773;81;21141;-60
2021/03/05 08:09:13;;;;;;;23.83;12.40;;;;;;;3.07;66.65;99143.87;1761127;79;22900;-60
2021/03/05 08:11:41;;;;;;;24.80;12.73;;;;;;;3.08;66.38;99145.52;1722691;83;21197;-61
2021/03/05 08:14:26;;;;;;;23.10;12.60;;;;;;;3.13;66.06;99152.84;1722428;83;21234;-60
2021/03/05 08:16:53;;;;;;;22.42;12.25;;;;;;;3.16;66.27;99157.22;1722663;82;21126;-60
2021/03/05 08:19:27;;;;;;;24.90;12.45;;;;;;;3.34;66.21;99157.05;1722598;83;21189;-61
2021/03/05 08:22:01;;;;;;;24.52;12.37;;;;;;;3.52;65.24;99156.05;1700724;83;21725;-61
2021/03/05 08:24:38;;;;;;;20.65;10.55;;;;;;;3.60;64.23;99149.48;1715694;82;21667;-60
2021/03/05 08:27:20;;;;;;;20.37;11.40;;;;;;;3.65;64.30;99155.76;1694448;83;21189;-61
2021/03/05 08:32:47;;;;;;;19.23;11.83;;;;;;;3.74;62.94;99150.81;1802969;79;28028;-60
2021/03/05 08:35:36;;;;;;;19.75;10.58;;;;;;;4.12;61.82;99153.64;1760703;81;21140;-60
2021/03/05 08:38:07;;;;;;;19.77;10.78;;;;;;;4.18;60.03;99131.11;1760686;81;21191;-60
2021/03/05 08:40:37;;;;;;;16.65;9.58;;;;;;;4.14;60.74;99143.45;1757702;81;21152;-60
2021/03/05 08:43:23;;;;;;;20.23;10.88;;;;;;;4.10;60.13;99147.70;1757915;81;21599;-62
2021/03/05 08:45:59;;;;;;;19.52;10.60;;;;;;;4.06;60.60;99143.84;1756409;81;21149;-63
2021/03/05 08:48:41;;;;;;;18.37;10.57;;;;;;;4.15;60.91;99150.45;1760558;81;21180;-62
2021/03/05 08:51:20;;;;;;;19.75;10.30;;;;;;;4.18;60.13;99145.92;1756039;81;21865;-62
2021/03/05 08:53:53;;;;;;;14.58;8.00;;;;;;;4.21;60.06;99149.50;1761090;81;21318;-62
2021/03/05 08:56:28;;;;;;;16.27;7.92;;;;;;;4.30;59.66;99151.23;1760217;81;21626;-62
2021/03/05 08:59:03;;;;;;;14.58;7.80;;;;;;;4.43;57.54;99161.15;1760207;81;21334;-62
2021/03/05 09:01:35;;;;;;;13.30;7.08;;;;;;;4.38;57.29;99162.96;1760246;81;21145;-62
2021/03/05 09:04:17;;;;;;;15.53;7.47;;;;;;;4.30;56.37;99169.57;1760632;81;21188;-62
2021/03/05 09:06:54;;;;;;;14.07;7.75;;;;;;;4.24;57.42;99159.78;1760709;81;21160;-61
2021/03/05 09:09:23;;;;;;;;;;;;;;;4.30;56.88;99162.02;1763304;81;21149;-61
2021/03/05 09:15:02;;;;;;;16.93;8.98;;;;;;;4.57;57.34;99169.71;1736295;82;21191;-61
2021/03/05 09:17:30;;;;;;;17.12;9.65;;;;;;;4.69;56.43;99164.23;1739064;81;21188;-62
2021/03/05 09:19:58;;;;;;;19.05;10.03;;;;;;;4.63;57.11;99167.93;1738903;82;21346;-62
2021/03/05 09:22:26;;;;;;;16.32;9.40;;;;;;;4.71;57.74;99168.86;1738934;81;21355;-62
2021/03/05 09:25:00;;;;;;;16.23;9.30;;;;;;;4.91;56.83;99175.36;1738986;82;21623;-61
2021/03/05 09:27:37;;;;;;;14.70;8.95;;;;;;;5.00;56.10;99176.55;1739042;82;21160;-62
2021/03/05 09:30:19;;;;;;;19.57;8.95;;;;;;;4.87;55.50;99182.84;1738929;82;21180;-61
2021/03/05 09:32:54;;;;;;;16.55;8.38;;;;;;;4.68;56.22;99186.86;1739090;82;21643;-62
2021/03/05 09:35:27;;;;;;;16.15;8.20;;;;;;;4.64;56.68;99191.14;1739151;82;21124;-62
2021/03/05 09:37:56;;;;;;;14.60;8.03;;;;;;;4.67;56.85;99190.64;1739118;81;21216;-60
2021/03/05 09:40:25;;;;;;;14.20;8.15;;;;;;;4.62;56.92;99191.89;1739172;82;21152;-60
2021/03/05 09:42:57;;;;;;;13.40;8.30;;;;;;;4.57;55.64;99191.84;1738821;81;21148;-61
2021/03/05 09:45:49;;;;;;;15.25;7.03;;;;;;;4.51;55.90;99198.48;1738606;82;21306;-61
2021/03/05 09:48:34;;;;;;;13.60;7.58;;;;;;;4.59;55.65;99197.26;1738549;81;21212;-61
2021/03/05 09:51:04;;;;;;;16.35;8.43;;;;;;;4.63;55.62;99202.98;1738746;82;21137;-61
2021/03/05 09:53:34;;;;;;;17.98;9.08;;;;;;;4.72;56.28;99209.57;1738610;82;21164;-60
2021/03/05 09:56:03;;;;;;;18.77;9.20;;;;;;;4.81;56.22;99204.06;1738649;82;21418;-61
2021/03/05 09:58:31;;;;;;;15.98;9.08;;;;;;;4.80;55.95;99197.85;1738471;82;21140;-60
2021/03/05 10:14:37;;;;;;;14.63;8.15;;;;;;;6.12;52.41;99218.41;1815889;79;22578;-66
2021/03/05 10:17:15;;;;;;;11.63;6.95;;;;;;;6.03;53.16;99222.09;1788466;80;21296;-67
2021/03/05 10:19:44;;;;;;;13.38;7.70;;;;;;;5.75;53.99;99219.59;1723700;83;21232;-67
2021/03/05 10:22:13;;;;;;;15.45;9.10;;;;;;;5.58;54.65;99213.45;1727404;83;21189;-67
2021/03/05 10:24:41;;;;;;;13.13;7.90;;;;;;;5.38;55.20;99216.73;1724147;83;21600;-68
2021/03/05 10:29:52;;;;;;;12.90;6.75;;;;;;;5.06;55.90;99232.77;1723943;83;21680;-67
2021/03/05 10:32:28;;;;;;;15.83;8.70;;;;;;;4.77;57.22;99223.97;1723984;83;21150;-67
2021/03/05 10:34:58;;;;;;;;;;;;;;;4.49;58.90;99232.14;1726674;83;21390;-67
2021/03/05 10:37:25;;;;;;;11.88;6.92;;;;;;;4.29;59.48;99234.47;1723961;83;20161;-67
2021/03/05 10:39:53;;;;;;;13.45;7.00;;;;;;;4.12;60.29;99239.02;1723995;83;21185;-67
2021/03/05 10:42:24;;;;;;;16.05;8.48;;;;;;;4.14;60.52;99235.57;1724018;83;21178;-67
2021/03/05 10:44:53;;;;;;;14.70;7.40;;;;;;;4.30;60.39;99237.46;1723977;83;21153;-67
2021/03/05 10:47:22;;;;;;;14.30;8.18;;;;;;;4.28;61.00;99239.59;1723880;83;21359;-67
2021/03/05 10:49:50;;;;;;;12.33;7.47;;;;;;;4.26;61.13;99242.52;1724128;83;21246;-67
2021/03/05 10:52:23;;;;;;;16.32;8.83;;;;;;;4.27;61.38;99233.91;1723973;83;21177;-67
2021/03/05 10:54:54;;;;;;;14.28;7.83;;;;;;;4.35;61.51;99239.73;1723982;83;21202;-67
2021/03/05 10:57:22;;;;;;;12.75;6.47;;;;;;;4.38;60.08;99245.16;1723922;83;21181;-67
2021/03/05 10:59:50;;;;;;;11.33;5.95;;;;;;;4.28;59.94;99236.90;1724120;83;21185;-67
2021/03/05 11:02:19;;;;;;;11.53;6.30;;;;;;;4.14;60.50;99240.44;1724134;83;21206;-67
2021/03/05 11:04:47;;;;;;;11.97;6.87;;;;;;;4.01;60.37;99234.80;1724223;83;21219;-65
2021/03/05 11:07:14;;;;;;;12.40;7.03;;;;;;;3.98;60.99;99235.28;1724208;83;21696;-67
2021/03/05 11:09:42;;;;;;;12.82;6.22;;;;;;;3.92;61.24;99240.82;1724165;83;21622;-67
2021/03/05 11:12:12;;;;;;;13.55;7.45;;;;;;;3.85;61.57;99244.19;1695632;83;21212;-66
2021/03/05 11:14:40;;;;;;;12.93;6.60;;;;;;;3.71;61.96;99238.27;1673287;83;21177;-66
2021/03/05 11:17:07;;;;;;;13.98;6.83;;;;;;;3.62;62.88;99242.38;1746992;82;21235;-67
2021/03/05 11:19:36;;;;;;;14.45;6.60;;;;;;;3.63;62.94;99244.02;1746943;82;21169;-66
2021/03/05 11:22:04;;;;;;;11.63;7.00;;;;;;;3.63;63.56;99245.89;1747066;82;21331;-67
2021/03/05 11:24:31;;;;;;;13.10;7.30;;;;;;;3.68;63.88;99238.75;1746656;82;21170;-67
2021/03/05 11:26:59;;;;;;;10.68;5.62;;;;;;;3.79;63.71;99240.56;1746499;82;21196;-66
2021/03/05 11:29:26;;;;;;;12.55;6.12;;;;;;;3.85;61.83;99236.93;1746425;82;21172;-66
2021/03/05 11:31:54;;;;;;;7.78;3.98;;;;;;;3.81;61.40;99249.75;1746516;82;21311;-67
2021/03/05 11:34:21;;;;;;;7.10;3.70;;;;;;;3.78;61.42;99248.89;1746188;82;21177;-67
2021/03/05 11:36:50;;;;;;;8.75;5.15;;;;;;;3.69;61.26;99250.31;1746386;82;21181;-67
2021/03/05 11:39:17;;;;;;;8.30;5.20;;;;;;;3.54;62.52;99252.19;1746343;82;21365;-67
2021/03/05 11:41:45;;;;;;;12.30;6.30;;;;;;;3.42;63.84;99260.28;1746341;82;21304;-67
2021/03/05 11:44:14;;;;;;;9.78;5.47;;;;;;;3.41;64.99;99261.33;1745853;82;21199;-66
2021/03/05 11:46:42;;;;;;;9.00;4.33;;;;;;;3.48;66.32;99269.27;1746367;82;21181;-66
2021/03/05 11:49:10;;;;;;;8.73;4.45;;;;;;;3.33;65.92;99263.02;1746598;82;21144;-66
2021/03/05 11:51:38;;;;;;;10.50;5.70;;;;;;;3.22;66.96;99263.89;1746740;82;21566;-66
2021/03/05 11:54:06;;;;;;;11.73;5.97;;;;;;;3.11;68.32;99268.74;1717600;82;21177;-66
2021/03/05 11:56:35;;;;;;;11.50;6.15;;;;;;;3.07;69.60;99272.95;1746469;82;21157;-66
2021/03/05 11:59:05;;;;;;;9.53;5.10;;;;;;;3.08;69.57;99276.46;1746572;82;21142;-66
2021/03/05 12:01:32;;;;;;;10.68;5.65;;;;;;;3.03;69.11;99269.09;1746498;82;21731;-66
2021/03/05 12:03:59;;;;;;;8.05;4.42;;;;;;;2.96;69.94;99279.14;1717858;82;21166;-66
2021/03/05 12:06:27;;;;;;;11.12;5.40;;;;;;;2.92;69.80;99277.45;1746471;82;21134;-66
2021/03/05 12:08:55;;;;;;;10.08;4.97;;;;;;;2.95;70.23;99276.97;1717816;82;21779;-66
2021/03/05 12:11:23;;;;;;;10.45;5.87;;;;;;;3.09;69.99;99281.59;1746444;82;21304;-66
2021/03/05 12:13:51;;;;;;;10.65;6.70;;;;;;;3.17;69.89;99266.97;1755901;80;21660;-66
2021/03/05 12:16:18;;;;;;;12.60;7.60;;;;;;;3.12;69.96;99271.70;1767122;81;21182;-66